createdAt,value
2023-02-05T00:00:01.366Z,102176.13
2023-02-05T00:05:02.874Z,102175.25
2023-02-05T00:10:05.010Z,102170.78
2023-02-05T00:15:06.969Z,102169.06
2023-02-05T00:20:09.129Z,102174.38
2023-02-05T00:25:10.671Z,102184.94
2023-02-05T00:30:12.690Z,102171.75
2023-02-05T00:35:14.150Z,102169.06
2023-02-05T00:40:15.584Z,102177.88
2023-02-05T00:45:17.155Z,102163.78
2023-02-05T00:50:18.938Z,102179.69
2023-02-05T00:55:20.404Z,102188.50
2023-02-05T01:00:22.301Z,102183.22
2023-02-05T01:05:23.763Z,102202.69
2023-02-05T01:10:25.404Z,102192.94
2023-02-05T01:15:26.986Z,102186.75
2023-02-05T01:20:29.041Z,102187.66
2023-02-05T01:25:30.520Z,102200.00
2023-02-05T01:30:32.072Z,102199.13
2023-02-05T01:35:33.912Z,102197.38
2023-02-05T01:40:35.641Z,102192.94
2023-02-05T01:46:06.878Z,102191.16
2023-02-05T01:51:13.889Z,102195.63
2023-02-05T01:56:29.767Z,102182.34
2023-02-05T02:01:32.179Z,102193.81
2023-02-05T02:06:35.953Z,102190.31
2023-02-05T02:11:42.279Z,102189.41
2023-02-05T02:16:44.031Z,102206.22
2023-02-05T02:22:04.324Z,102188.53
2023-02-05T02:27:21.165Z,102194.69
2023-02-05T02:32:41.260Z,102193.81
2023-02-05T02:37:52.560Z,102182.34
2023-02-05T02:43:05.959Z,102183.22
2023-02-05T02:48:08.004Z,102191.16
2023-02-05T02:53:17.885Z,102192.03
2023-02-05T02:58:37.840Z,102189.41
2023-02-05T03:03:43.931Z,102198.25
2023-02-05T03:08:53.176Z,102200.91
2023-02-05T03:13:56.344Z,102184.09
2023-02-05T03:18:58.395Z,102193.78
2023-02-05T03:23:59.866Z,102196.44
2023-02-05T03:29:04.898Z,102198.22
2023-02-05T03:34:28.410Z,102206.19
2023-02-05T03:39:38.586Z,102206.19
2023-02-05T03:44:45.877Z,102204.38
2023-02-05T03:49:54.634Z,102206.13
2023-02-05T03:55:10.129Z,102205.25
2023-02-05T04:00:12.894Z,102205.31
2023-02-05T04:05:14.314Z,102207.94
2023-02-05T04:10:16.711Z,102208.84
2023-02-05T04:15:18.173Z,102204.41
2023-02-05T04:20:19.725Z,102211.50
2023-02-05T04:25:21.801Z,102211.50
2023-02-05T04:30:23.234Z,102213.25
2023-02-05T04:35:24.914Z,102223.84
2023-02-05T04:40:26.347Z,102218.53
2023-02-05T04:45:31.082Z,102223.84
2023-02-05T04:50:33.015Z,102222.09
2023-02-05T04:55:34.781Z,102232.66
2023-02-05T05:00:36.486Z,102233.56
2023-02-05T05:05:37.899Z,102247.66
2023-02-05T05:10:39.334Z,102262.66
2023-02-05T05:15:40.825Z,102266.22
2023-02-05T05:20:42.744Z,102267.13
2023-02-05T05:25:46.272Z,102272.44
2023-02-05T05:30:48.295Z,102283.91
2023-02-05T05:35:49.716Z,102290.09
2023-02-05T05:41:09.711Z,102302.50
2023-02-05T05:46:11.262Z,102300.69
2023-02-05T05:51:12.708Z,102305.06
2023-02-05T05:56:15.163Z,102313.84
2023-02-05T06:01:19.082Z,102299.69
2023-02-05T06:06:20.525Z,102297.94
2023-02-05T06:11:22.069Z,102308.53
2023-02-05T06:16:23.529Z,102300.59
2023-02-05T06:21:25.130Z,102317.31
2023-02-05T06:26:26.609Z,102305.75
2023-02-05T06:31:28.509Z,102322.56
2023-02-05T06:36:29.993Z,102326.97
2023-02-05T06:41:31.406Z,102331.34
2023-02-05T06:46:32.921Z,102339.41
2023-02-05T06:51:34.372Z,102330.56
2023-02-05T06:56:35.807Z,102345.56
2023-02-05T07:01:37.233Z,102355.31
2023-02-05T07:06:38.700Z,102365.94
2023-02-05T07:11:40.127Z,102371.31
2023-02-05T07:16:41.536Z,102370.41
2023-02-05T07:21:43.103Z,102383.75
2023-02-05T07:26:45.326Z,102403.97
2023-02-05T07:31:49.552Z,102395.09
2023-02-05T07:36:51.842Z,102391.50
2023-02-05T07:41:53.594Z,102403.75
2023-02-05T07:46:55.139Z,102396.03
2023-02-05T07:51:56.610Z,102402.38
2023-02-05T07:57:00.137Z,102402.34
2023-02-05T08:02:01.600Z,102392.72
2023-02-05T08:07:03.279Z,102395.50
2023-02-05T08:12:05.620Z,102397.31
2023-02-05T08:17:07.157Z,102399.06
2023-02-05T08:22:08.586Z,102396.47
2023-02-05T08:27:10.023Z,102396.47
2023-02-05T08:32:11.459Z,102398.22
2023-02-05T08:37:12.915Z,102396.44
2023-02-05T08:42:14.352Z,102391.97
2023-02-05T08:47:19.689Z,102395.47
2023-02-05T08:52:21.215Z,102406.06
2023-02-05T08:57:22.755Z,102400.78
2023-02-05T09:02:27.528Z,102395.56
2023-02-05T09:07:30.949Z,102401.75
2023-02-05T09:12:32.366Z,102389.31
2023-02-05T09:17:33.823Z,102381.31
2023-02-05T09:22:35.250Z,102376.94
2023-02-05T09:27:36.737Z,102379.59
2023-02-05T09:32:38.167Z,102383.09
2023-02-05T09:37:39.593Z,102384.75
2023-02-05T09:42:59.707Z,102379.41
2023-02-05T09:48:08.560Z,102377.69
2023-02-05T09:53:18.437Z,102372.38
2023-02-05T09:58:32.958Z,102376.56
2023-02-05T10:03:44.499Z,102379.13
2023-02-05T10:09:03.781Z,102374.00
2023-02-05T10:14:15.278Z,102367.13
2023-02-05T10:19:35.260Z,102354.72
2023-02-05T10:24:46.264Z,102353.91
2023-02-05T10:29:57.623Z,102349.47
2023-02-05T10:35:04.584Z,102346.84
2023-02-05T10:40:15.096Z,102360.06
2023-02-05T10:45:25.307Z,102359.19
2023-02-05T10:50:36.473Z,102349.44
2023-02-05T10:55:38.155Z,102354.78
2023-02-05T11:00:40.148Z,102353.88
2023-02-05T11:05:41.698Z,102351.25
2023-02-05T11:10:53.101Z,102340.53
2023-02-05T11:15:57.852Z,102342.31
2023-02-05T11:21:02.963Z,102350.31
2023-02-05T11:26:10.607Z,102343.16
2023-02-05T11:31:27.160Z,102359.09
2023-02-05T11:36:28.828Z,102349.31
2023-02-05T11:41:32.826Z,102352.00
2023-02-05T11:46:42.915Z,102338.69
2023-02-05T11:51:47.326Z,102344.78
2023-02-05T11:57:22.302Z,102348.31
2023-02-05T12:02:29.603Z,102342.97
2023-02-05T12:07:41.146Z,102331.53
2023-02-05T12:12:51.820Z,102336.75
2023-02-05T12:18:34.325Z,102342.88
2023-02-05T12:23:57.460Z,102342.69
2023-02-05T12:29:01.579Z,102325.84
2023-02-05T12:34:05.743Z,102318.72
2023-02-05T12:39:28.305Z,102324.06
2023-02-05T12:44:56.143Z,102318.97
2023-02-05T12:50:12.309Z,102314.56
2023-02-05T12:55:33.608Z,102310.97
2023-02-05T13:00:51.590Z,102319.72
2023-02-05T13:05:58.253Z,102316.22
2023-02-05T13:11:07.859Z,102312.91
2023-02-05T13:16:11.372Z,102310.22
2023-02-05T13:21:36.355Z,102317.19
2023-02-05T13:27:02.621Z,102314.44
2023-02-05T13:32:15.605Z,102318.81
2023-02-05T13:37:50.260Z,102316.25
2023-02-05T13:43:12.700Z,102310.06
2023-02-05T13:48:36.380Z,102311.75
2023-02-05T13:54:01.555Z,102311.75
2023-02-05T13:59:11.072Z,102304.66
2023-02-05T14:04:23.400Z,102304.59
2023-02-05T14:09:44.664Z,102290.38
2023-02-05T14:15:15.299Z,102308.13
2023-02-05T14:20:25.882Z,102310.81
2023-02-05T14:25:37.278Z,102297.56
2023-02-05T14:30:47.977Z,102295.72
2023-02-05T14:35:50.421Z,102294.78
2023-02-05T14:41:16.206Z,102292.22
2023-02-05T14:46:59.919Z,102296.75
2023-02-05T14:52:04.904Z,102294.13
2023-02-05T14:57:17.568Z,102288.84
2023-02-05T15:02:48.052Z,102313.66
2023-02-05T15:07:53.722Z,102313.72
2023-02-05T15:13:02.171Z,102314.63
2023-02-05T15:18:23.963Z,102327.88
2023-02-05T15:23:46.412Z,102321.66
2023-02-05T15:29:20.528Z,102322.53
2023-02-05T15:34:28.652Z,102326.19
2023-02-05T15:39:53.695Z,102327.13
2023-02-05T15:44:55.124Z,102338.66
2023-02-05T15:50:00.163Z,102315.66
2023-02-05T15:55:12.434Z,102323.66
2023-02-05T16:00:24.619Z,102332.56
2023-02-05T16:05:27.616Z,102337.00
2023-02-05T16:10:34.861Z,102345.03
2023-02-05T16:15:41.654Z,102335.34
2023-02-05T16:20:52.038Z,102344.16
2023-02-05T16:26:10.147Z,102345.09
2023-02-05T16:31:20.634Z,102335.34
2023-02-05T16:36:24.822Z,102335.38
2023-02-05T16:41:31.170Z,102348.66
2023-02-05T16:46:35.066Z,102347.75
2023-02-05T16:51:45.808Z,102349.53
2023-02-05T16:57:02.312Z,102358.38
2023-02-05T17:02:04.086Z,102361.06
2023-02-05T17:07:17.298Z,102355.72
2023-02-05T17:12:21.756Z,102361.94
2023-02-05T17:17:25.020Z,102374.31
2023-02-05T17:22:27.553Z,102362.81
2023-02-05T17:27:36.026Z,102355.72
2023-02-05T17:32:37.566Z,102363.69
2023-02-05T17:37:39.020Z,102353.06
2023-02-05T17:42:41.014Z,102352.19
2023-02-05T17:47:42.987Z,102359.25
2023-02-05T17:52:45.381Z,102359.25
2023-02-05T17:57:46.844Z,102370.75
2023-02-05T18:02:48.617Z,102367.25
2023-02-05T18:07:53.188Z,102360.16
2023-02-05T18:12:56.081Z,102363.69
2023-02-05T18:17:57.504Z,102358.34
2023-02-05T18:22:58.983Z,102359.25
2023-02-05T18:28:00.494Z,102350.41
2023-02-05T18:33:02.051Z,102335.38
2023-02-05T18:38:03.476Z,102338.91
2023-02-05T18:43:04.977Z,102349.53
2023-02-05T18:48:06.397Z,102354.81
2023-02-05T18:53:07.853Z,102345.97
2023-02-05T18:58:09.391Z,102360.13
2023-02-05T19:03:11.937Z,102355.69
2023-02-05T19:08:13.368Z,102356.53
2023-02-05T19:13:14.884Z,102355.63
2023-02-05T19:18:16.295Z,102359.13
2023-02-05T19:23:17.719Z,102375.06
2023-02-05T19:28:19.170Z,102363.59
2023-02-05T19:33:20.620Z,102381.31
2023-02-05T19:38:22.084Z,102386.63
2023-02-05T19:43:23.527Z,102382.22
2023-02-05T19:48:25.045Z,102398.13
2023-02-05T19:53:26.965Z,102413.19
2023-02-05T19:58:30.129Z,102409.63
2023-02-05T20:03:31.541Z,102427.34
2023-02-05T20:08:32.957Z,102445.91
2023-02-05T20:13:36.109Z,102443.22
2023-02-05T20:18:38.766Z,102438.78
2023-02-05T20:23:40.515Z,102452.94
2023-02-05T20:29:00.698Z,102461.75
2023-02-05T20:34:04.272Z,102467.94
2023-02-05T20:39:07.504Z,102457.25
2023-02-05T20:44:08.937Z,102466.09
2023-02-05T20:49:10.511Z,102476.69
2023-02-05T20:54:12.434Z,102479.31
2023-02-05T20:59:13.908Z,102488.19
2023-02-05T21:04:15.364Z,102502.31
2023-02-05T21:09:17.022Z,102504.03
2023-02-05T21:14:18.704Z,102508.50
2023-02-05T21:19:20.223Z,102517.31
2023-02-05T21:24:21.796Z,102521.81
2023-02-05T21:29:23.318Z,102509.44
2023-02-05T21:34:27.224Z,102518.34
2023-02-05T21:39:28.646Z,102513.97
2023-02-05T21:44:30.138Z,102505.16
2023-02-05T21:49:31.790Z,102507.75
2023-02-05T21:54:33.373Z,102520.19
2023-02-05T21:59:34.782Z,102529.97
2023-02-05T22:04:36.789Z,102529.97
2023-02-05T22:09:38.288Z,102540.63
2023-02-05T22:14:39.698Z,102535.31
2023-02-05T22:19:41.176Z,102528.22
2023-02-05T22:24:42.608Z,102552.09
2023-02-05T22:29:44.138Z,102554.75
2023-02-05T22:34:45.567Z,102557.38
2023-02-05T22:39:47.879Z,102555.63
2023-02-05T22:44:49.301Z,102565.31
2023-02-05T22:49:50.818Z,102584.81
2023-02-05T22:54:52.247Z,102567.06
2023-02-05T22:59:54.278Z,102559.06
2023-02-05T23:04:55.738Z,102566.09
2023-02-05T23:09:57.152Z,102571.34
2023-02-05T23:14:58.636Z,102562.44
2023-02-05T23:20:00.176Z,102566.81
2023-02-05T23:25:01.843Z,102568.44
2023-02-05T23:30:04.497Z,102549.00
2023-02-05T23:35:06.681Z,102540.19
2023-02-05T23:40:08.540Z,102528.69
2023-02-05T23:45:09.989Z,102537.63
2023-02-05T23:50:11.421Z,102536.72
2023-02-05T23:55:12.890Z,102534.06
